sensor_id;sensor_type;location;lat;lon;timestamp;temperature;humidity
3684;DHT22;1858;48.716;9.648;2023-01-28T00:02:12;1.90;99.90
3684;DHT22;1858;48.716;9.648;2023-01-28T00:04:41;2.00;99.90
3684;DHT22;1858;48.716;9.648;2023-01-28T00:07:09;1.90;99.90
3684;DHT22;1858;48.716;9.648;2023-01-28T00:09:38;1.90;99.90
3684;DHT22;1858;48.716;9.648;2023-01-28T00:12:06;1.90;99.90
3684;DHT22;1858;48.716;9.648;2023-01-28T00:14:35;1.90;99.90
3684;DHT22;1858;48.716;9.648;2023-01-28T00:17:04;1.90;99.90
3684;DHT22;1858;48.716;9.648;2023-01-28T00:19:33;1.80;99.90
3684;DHT22;1858;48.716;9.648;2023-01-28T00:22:20;1.70;99.90
3684;DHT22;1858;48.716;9.648;2023-01-28T00:24:49;1.70;99.90
3684;DHT22;1858;48.716;9.648;2023-01-28T00:27:17;1.80;99.90
3684;DHT22;1858;48.716;9.648;2023-01-28T00:29:46;1.70;99.90
3684;DHT22;1858;48.716;9.648;2023-01-28T00:32:14;1.70;99.90
3684;DHT22;1858;48.716;9.648;2023-01-28T00:34:43;1.70;99.90
3684;DHT22;1858;48.716;9.648;2023-01-28T00:37:11;1.70;99.90
3684;DHT22;1858;48.716;9.648;2023-01-28T00:39:39;1.70;99.90
3684;DHT22;1858;48.716;9.648;2023-01-28T00:42:08;1.80;99.90
3684;DHT22;1858;48.716;9.648;2023-01-28T00:44:36;1.80;99.90
3684;DHT22;1858;48.716;9.648;2023-01-28T00:47:04;1.80;99.90
3684;DHT22;1858;48.716;9.648;2023-01-28T00:49:33;1.90;99.90
3684;DHT22;1858;48.716;9.648;2023-01-28T00:52:01;1.80;99.90
3684;DHT22;1858;48.716;9.648;2023-01-28T00:54:30;1.80;99.90
3684;DHT22;1858;48.716;9.648;2023-01-28T00:56:58;1.60;99.90
3684;DHT22;1858;48.716;9.648;2023-01-28T00:59:27;1.60;99.90
3684;DHT22;1858;48.716;9.648;2023-01-28T01:01:55;1.60;99.90
3684;DHT22;1858;48.716;9.648;2023-01-28T01:04:25;1.60;99.90
3684;DHT22;1858;48.716;9.648;2023-01-28T01:06:53;1.60;99.90
3684;DHT22;1858;48.716;9.648;2023-01-28T01:09:22;1.60;99.90
3684;DHT22;1858;48.716;9.648;2023-01-28T01:11:50;1.70;99.90
3684;DHT22;1858;48.716;9.648;2023-01-28T01:14:38;1.60;99.90
3684;DHT22;1858;48.716;9.648;2023-01-28T01:17:06;1.60;99.90
3684;DHT22;1858;48.716;9.648;2023-01-28T01:19:36;1.50;99.90
3684;DHT22;1858;48.716;9.648;2023-01-28T01:22:04;1.60;99.90
3684;DHT22;1858;48.716;9.648;2023-01-28T01:24:52;1.50;99.90
3684;DHT22;1858;48.716;9.648;2023-01-28T01:27:20;1.50;99.90
3684;DHT22;1858;48.716;9.648;2023-01-28T01:29:49;1.60;99.90
3684;DHT22;1858;48.716;9.648;2023-01-28T01:32:17;1.70;99.90
3684;DHT22;1858;48.716;9.648;2023-01-28T01:34:47;1.70;99.90
3684;DHT22;1858;48.716;9.648;2023-01-28T01:37:15;1.70;99.90
3684;DHT22;1858;48.716;9.648;2023-01-28T01:39:44;1.70;99.90
3684;DHT22;1858;48.716;9.648;2023-01-28T01:42:13;1.80;99.90
3684;DHT22;1858;48.716;9.648;2023-01-28T01:45:00;1.80;99.90
3684;DHT22;1858;48.716;9.648;2023-01-28T01:47:35;1.70;99.90
3684;DHT22;1858;48.716;9.648;2023-01-28T01:50:27;1.80;99.90
3684;DHT22;1858;48.716;9.648;2023-01-28T01:53:15;1.80;99.90
3684;DHT22;1858;48.716;9.648;2023-01-28T01:55:47;1.80;99.90
3684;DHT22;1858;48.716;9.648;2023-01-28T01:58:18;1.90;99.90
3684;DHT22;1858;48.716;9.648;2023-01-28T02:01:07;1.80;99.90
3684;DHT22;1858;48.716;9.648;2023-01-28T02:06:27;1.80;99.90
3684;DHT22;1858;48.716;9.648;2023-01-28T02:09:22;1.80;99.90
3684;DHT22;1858;48.716;9.648;2023-01-28T02:12:11;1.80;99.90
3684;DHT22;1858;48.716;9.648;2023-01-28T02:15:01;1.80;99.90
3684;DHT22;1858;48.716;9.648;2023-01-28T02:17:49;1.80;99.90
3684;DHT22;1858;48.716;9.648;2023-01-28T02:39:33;1.80;99.90
3684;DHT22;1858;48.716;9.648;2023-01-28T02:42:05;1.70;99.90
3684;DHT22;1858;48.716;9.648;2023-01-28T02:44:33;1.70;99.90
3684;DHT22;1858;48.716;9.648;2023-01-28T02:47:02;1.70;99.90
3684;DHT22;1858;48.716;9.648;2023-01-28T02:49:50;1.70;99.90
3684;DHT22;1858;48.716;9.648;2023-01-28T02:55:38;1.70;99.90
3684;DHT22;1858;48.716;9.648;2023-01-28T03:01:18;1.60;99.90
3684;DHT22;1858;48.716;9.648;2023-01-28T03:03:35;1.60;99.90
3684;DHT22;1858;48.716;9.648;2023-01-28T03:06:02;1.60;99.90
3684;DHT22;1858;48.716;9.648;2023-01-28T03:08:43;1.60;99.90
3684;DHT22;1858;48.716;9.648;2023-01-28T03:11:34;1.70;99.90
3684;DHT22;1858;48.716;9.648;2023-01-28T03:14:21;1.70;99.90
3684;DHT22;1858;48.716;9.648;2023-01-28T03:17:21;1.70;99.90
3684;DHT22;1858;48.716;9.648;2023-01-28T03:20:08;1.70;99.90
3684;DHT22;1858;48.716;9.648;2023-01-28T03:26:03;1.80;99.90
3684;DHT22;1858;48.716;9.648;2023-01-28T03:28:52;1.80;99.90
3684;DHT22;1858;48.716;9.648;2023-01-28T03:34:46;2.00;99.90
3684;DHT22;1858;48.716;9.648;2023-01-28T03:37:34;1.90;99.90
3684;DHT22;1858;48.716;9.648;2023-01-28T03:40:06;2.00;99.90
3684;DHT22;1858;48.716;9.648;2023-01-28T03:42:35;2.10;99.90
3684;DHT22;1858;48.716;9.648;2023-01-28T03:45:06;2.10;99.90
3684;DHT22;1858;48.716;9.648;2023-01-28T03:47:53;2.20;99.90
3684;DHT22;1858;48.716;9.648;2023-01-28T03:50:21;2.20;99.90
3684;DHT22;1858;48.716;9.648;2023-01-28T03:52:50;2.20;99.90
3684;DHT22;1858;48.716;9.648;2023-01-28T03:55:18;2.10;99.90
3684;DHT22;1858;48.716;9.648;2023-01-28T03:58:06;2.10;99.90
3684;DHT22;1858;48.716;9.648;2023-01-28T04:00:35;2.20;99.90
3684;DHT22;1858;48.716;9.648;2023-01-28T04:03:04;2.30;99.90
3684;DHT22;1858;48.716;9.648;2023-01-28T04:05:34;2.20;99.90
3684;DHT22;1858;48.716;9.648;2023-01-28T04:08:02;2.30;99.90
3684;DHT22;1858;48.716;9.648;2023-01-28T04:10:31;2.30;99.90
3684;DHT22;1858;48.716;9.648;2023-01-28T04:12:59;2.30;99.90
3684;DHT22;1858;48.716;9.648;2023-01-28T04:15:27;2.10;99.90
3684;DHT22;1858;48.716;9.648;2023-01-28T04:17:57;2.00;99.90
3684;DHT22;1858;48.716;9.648;2023-01-28T04:20:27;2.00;99.90
3684;DHT22;1858;48.716;9.648;2023-01-28T04:22:55;2.00;99.90
3684;DHT22;1858;48.716;9.648;2023-01-28T04:25:23;2.00;99.90
3684;DHT22;1858;48.716;9.648;2023-01-28T04:27:52;2.00;99.90
3684;DHT22;1858;48.716;9.648;2023-01-28T04:30:21;1.90;99.90
3684;DHT22;1858;48.716;9.648;2023-01-28T04:32:49;1.90;99.90
3684;DHT22;1858;48.716;9.648;2023-01-28T04:35:18;2.00;99.90
3684;DHT22;1858;48.716;9.648;2023-01-28T04:37:47;2.10;99.90
3684;DHT22;1858;48.716;9.648;2023-01-28T04:40:15;2.10;99.90
3684;DHT22;1858;48.716;9.648;2023-01-28T04:42:51;2.20;99.90
3684;DHT22;1858;48.716;9.648;2023-01-28T04:45:35;2.10;99.90
3684;DHT22;1858;48.716;9.648;2023-01-28T04:48:03;2.20;99.90
3684;DHT22;1858;48.716;9.648;2023-01-28T04:50:31;2.10;99.90
3684;DHT22;1858;48.716;9.648;2023-01-28T04:53:00;2.10;99.90
3684;DHT22;1858;48.716;9.648;2023-01-28T04:55:28;1.90;99.90
3684;DHT22;1858;48.716;9.648;2023-01-28T04:57:57;2.00;99.90
3684;DHT22;1858;48.716;9.648;2023-01-28T05:00:25;1.90;99.90
3684;DHT22;1858;48.716;9.648;2023-01-28T05:02:53;2.00;99.90
3684;DHT22;1858;48.716;9.648;2023-01-28T05:05:41;2.00;99.90
3684;DHT22;1858;48.716;9.648;2023-01-28T05:08:09;2.00;99.90
3684;DHT22;1858;48.716;9.648;2023-01-28T05:10:57;2.10;99.90
3684;DHT22;1858;48.716;9.648;2023-01-28T05:13:45;2.10;99.90
3684;DHT22;1858;48.716;9.648;2023-01-28T05:16:32;2.20;99.90
3684;DHT22;1858;48.716;9.648;2023-01-28T05:19:20;2.10;99.90
3684;DHT22;1858;48.716;9.648;2023-01-28T05:21:49;2.10;99.90
3684;DHT22;1858;48.716;9.648;2023-01-28T05:24:17;2.10;99.90
3684;DHT22;1858;48.716;9.648;2023-01-28T05:26:46;2.10;99.90
3684;DHT22;1858;48.716;9.648;2023-01-28T05:29:14;2.10;99.90
3684;DHT22;1858;48.716;9.648;2023-01-28T05:31:42;2.10;99.90
3684;DHT22;1858;48.716;9.648;2023-01-28T05:34:11;2.10;99.90
3684;DHT22;1858;48.716;9.648;2023-01-28T05:36:39;2.20;99.90
3684;DHT22;1858;48.716;9.648;2023-01-28T05:39:08;2.20;99.90
3684;DHT22;1858;48.716;9.648;2023-01-28T05:41:36;2.30;99.90
3684;DHT22;1858;48.716;9.648;2023-01-28T05:44:04;2.20;99.90
3684;DHT22;1858;48.716;9.648;2023-01-28T05:46:33;2.10;99.90
3684;DHT22;1858;48.716;9.648;2023-01-28T05:49:01;2.10;99.90
3684;DHT22;1858;48.716;9.648;2023-01-28T05:51:30;2.10;99.90
3684;DHT22;1858;48.716;9.648;2023-01-28T05:53:59;2.00;99.90
3684;DHT22;1858;48.716;9.648;2023-01-28T05:56:27;1.90;99.90
3684;DHT22;1858;48.716;9.648;2023-01-28T05:58:56;2.00;99.90
3684;DHT22;1858;48.716;9.648;2023-01-28T06:01:24;2.00;99.90
3684;DHT22;1858;48.716;9.648;2023-01-28T06:03:52;1.90;99.90
3684;DHT22;1858;48.716;9.648;2023-01-28T06:06:21;1.90;99.90
3684;DHT22;1858;48.716;9.648;2023-01-28T06:08:49;1.90;99.90
3684;DHT22;1858;48.716;9.648;2023-01-28T06:11:18;1.90;99.90
3684;DHT22;1858;48.716;9.648;2023-01-28T06:14:05;1.90;99.90
3684;DHT22;1858;48.716;9.648;2023-01-28T06:16:34;1.90;99.90
3684;DHT22;1858;48.716;9.648;2023-01-28T06:19:22;1.80;99.90
3684;DHT22;1858;48.716;9.648;2023-01-28T06:21:50;1.80;99.90
3684;DHT22;1858;48.716;9.648;2023-01-28T06:24:18;1.80;99.90
3684;DHT22;1858;48.716;9.648;2023-01-28T06:26:47;1.90;99.90
3684;DHT22;1858;48.716;9.648;2023-01-28T06:29:15;1.90;99.90
3684;DHT22;1858;48.716;9.648;2023-01-28T06:31:43;1.90;99.90
3684;DHT22;1858;48.716;9.648;2023-01-28T06:34:12;1.80;99.90
3684;DHT22;1858;48.716;9.648;2023-01-28T06:36:41;1.90;99.90
3684;DHT22;1858;48.716;9.648;2023-01-28T06:39:10;1.80;99.90
3684;DHT22;1858;48.716;9.648;2023-01-28T06:41:39;1.80;99.90
3684;DHT22;1858;48.716;9.648;2023-01-28T06:44:07;1.90;99.90
3684;DHT22;1858;48.716;9.648;2023-01-28T06:46:35;1.80;99.90
3684;DHT22;1858;48.716;9.648;2023-01-28T06:49:04;1.90;99.90
3684;DHT22;1858;48.716;9.648;2023-01-28T06:51:32;1.90;99.90
3684;DHT22;1858;48.716;9.648;2023-01-28T06:54:01;1.90;99.90
3684;DHT22;1858;48.716;9.648;2023-01-28T06:56:29;1.90;99.90
3684;DHT22;1858;48.716;9.648;2023-01-28T06:58:58;1.80;99.90
3684;DHT22;1858;48.716;9.648;2023-01-28T07:01:26;1.80;99.90
3684;DHT22;1858;48.716;9.648;2023-01-28T07:03:55;1.80;99.90
3684;DHT22;1858;48.716;9.648;2023-01-28T07:06:23;1.80;99.90
3684;DHT22;1858;48.716;9.648;2023-01-28T07:08:52;1.80;99.90
3684;DHT22;1858;48.716;9.648;2023-01-28T07:11:20;1.80;99.90
3684;DHT22;1858;48.716;9.648;2023-01-28T07:13:49;1.90;99.90
3684;DHT22;1858;48.716;9.648;2023-01-28T07:16:17;1.80;99.90
3684;DHT22;1858;48.716;9.648;2023-01-28T07:18:45;1.80;99.90
3684;DHT22;1858;48.716;9.648;2023-01-28T07:21:14;1.80;99.90
3684;DHT22;1858;48.716;9.648;2023-01-28T07:23:42;1.80;99.90
3684;DHT22;1858;48.716;9.648;2023-01-28T07:26:10;1.90;99.90
3684;DHT22;1858;48.716;9.648;2023-01-28T07:28:39;1.90;99.90
3684;DHT22;1858;48.716;9.648;2023-01-28T07:31:07;1.90;99.90
3684;DHT22;1858;48.716;9.648;2023-01-28T07:33:36;1.90;99.90
3684;DHT22;1858;48.716;9.648;2023-01-28T07:36:04;1.90;99.90
3684;DHT22;1858;48.716;9.648;2023-01-28T07:38:52;2.00;99.90
3684;DHT22;1858;48.716;9.648;2023-01-28T07:41:20;2.00;99.90
3684;DHT22;1858;48.716;9.648;2023-01-28T07:44:02;2.10;99.90
3684;DHT22;1858;48.716;9.648;2023-01-28T07:46:30;2.00;99.90
3684;DHT22;1858;48.716;9.648;2023-01-28T07:48:58;2.10;99.90
3684;DHT22;1858;48.716;9.648;2023-01-28T07:51:27;2.00;99.90
3684;DHT22;1858;48.716;9.648;2023-01-28T07:53:56;2.00;99.90
3684;DHT22;1858;48.716;9.648;2023-01-28T07:56:24;2.10;99.90
3684;DHT22;1858;48.716;9.648;2023-01-28T07:58:54;2.10;99.90
3684;DHT22;1858;48.716;9.648;2023-01-28T08:01:42;2.10;99.90
3684;DHT22;1858;48.716;9.648;2023-01-28T08:04:10;2.10;99.90
3684;DHT22;1858;48.716;9.648;2023-01-28T08:06:39;2.20;99.90
3684;DHT22;1858;48.716;9.648;2023-01-28T08:09:07;2.40;99.90
3684;DHT22;1858;48.716;9.648;2023-01-28T08:11:37;2.40;99.90
3684;DHT22;1858;48.716;9.648;2023-01-28T08:14:06;2.30;99.90
3684;DHT22;1858;48.716;9.648;2023-01-28T08:16:34;2.30;99.90
3684;DHT22;1858;48.716;9.648;2023-01-28T08:19:22;2.50;99.90
3684;DHT22;1858;48.716;9.648;2023-01-28T08:22:10;2.60;99.90
3684;DHT22;1858;48.716;9.648;2023-01-28T08:24:38;2.60;99.90
3684;DHT22;1858;48.716;9.648;2023-01-28T08:27:06;2.60;99.90
3684;DHT22;1858;48.716;9.648;2023-01-28T08:29:35;2.70;99.90
3684;DHT22;1858;48.716;9.648;2023-01-28T08:32:22;2.70;99.90
3684;DHT22;1858;48.716;9.648;2023-01-28T08:34:51;2.70;99.90
3684;DHT22;1858;48.716;9.648;2023-01-28T08:37:39;2.70;99.90
3684;DHT22;1858;48.716;9.648;2023-01-28T08:40:08;2.70;99.90
3684;DHT22;1858;48.716;9.648;2023-01-28T08:42:37;2.80;99.90
3684;DHT22;1858;48.716;9.648;2023-01-28T08:51:03;3.00;99.90
3684;DHT22;1858;48.716;9.648;2023-01-28T08:53:32;3.00;99.90
3684;DHT22;1858;48.716;9.648;2023-01-28T08:56:00;3.00;99.90
3684;DHT22;1858;48.716;9.648;2023-01-28T08:58:29;3.00;99.90
3684;DHT22;1858;48.716;9.648;2023-01-28T09:00:57;3.00;99.90
3684;DHT22;1858;48.716;9.648;2023-01-28T09:03:25;3.20;99.90
3684;DHT22;1858;48.716;9.648;2023-01-28T09:05:59;3.10;99.90
3684;DHT22;1858;48.716;9.648;2023-01-28T09:08:47;3.10;99.90
3684;DHT22;1858;48.716;9.648;2023-01-28T09:11:16;3.30;99.90
3684;DHT22;1858;48.716;9.648;2023-01-28T09:13:44;3.20;99.90
3684;DHT22;1858;48.716;9.648;2023-01-28T09:16:13;3.20;99.90
3684;DHT22;1858;48.716;9.648;2023-01-28T09:19:00;3.20;99.90
3684;DHT22;1858;48.716;9.648;2023-01-28T09:21:29;3.40;99.90
3684;DHT22;1858;48.716;9.648;2023-01-28T09:23:57;3.50;99.90
3684;DHT22;1858;48.716;9.648;2023-01-28T09:26:26;3.50;99.90
3684;DHT22;1858;48.716;9.648;2023-01-28T09:28:54;3.60;99.90
3684;DHT22;1858;48.716;9.648;2023-01-28T09:31:22;3.70;77.50
3684;DHT22;1858;48.716;9.648;2023-01-28T09:33:51;3.70;67.60
3684;DHT22;1858;48.716;9.648;2023-01-28T09:36:21;3.60;44.10
3684;DHT22;1858;48.716;9.648;2023-01-28T09:39:08;3.60;45.10
3684;DHT22;1858;48.716;9.648;2023-01-28T09:44:33;3.70;31.20
3684;DHT22;1858;48.716;9.648;2023-01-28T09:47:04;3.50;32.90
3684;DHT22;1858;48.716;9.648;2023-01-28T09:49:45;3.40;33.10
3684;DHT22;1858;48.716;9.648;2023-01-28T09:52:33;3.50;53.90
3684;DHT22;1858;48.716;9.648;2023-01-28T09:55:35;3.70;49.60
3684;DHT22;1858;48.716;9.648;2023-01-28T09:58:12;3.70;29.50
3684;DHT22;1858;48.716;9.648;2023-01-28T10:10:08;4.10;8.10
3684;DHT22;1858;48.716;9.648;2023-01-28T10:15:58;4.50;1.00
3684;DHT22;1858;48.716;9.648;2023-01-28T10:18:36;4.50;1.00
3684;DHT22;1858;48.716;9.648;2023-01-28T10:21:24;4.70;1.00
3684;DHT22;1858;48.716;9.648;2023-01-28T10:24:05;4.80;1.00
3684;DHT22;1858;48.716;9.648;2023-01-28T10:29:31;4.80;1.00
3684;DHT22;1858;48.716;9.648;2023-01-28T10:31:58;4.90;1.00
3684;DHT22;1858;48.716;9.648;2023-01-28T10:34:45;4.90;1.00
3684;DHT22;1858;48.716;9.648;2023-01-28T10:37:14;5.00;1.00
3684;DHT22;1858;48.716;9.648;2023-01-28T10:39:44;5.10;1.00
3684;DHT22;1858;48.716;9.648;2023-01-28T10:42:33;5.00;1.00
3684;DHT22;1858;48.716;9.648;2023-01-28T10:45:27;5.30;1.00
3684;DHT22;1858;48.716;9.648;2023-01-28T10:50:56;5.20;1.00
3684;DHT22;1858;48.716;9.648;2023-01-28T10:56:29;4.60;1.00
3684;DHT22;1858;48.716;9.648;2023-01-28T10:59:36;4.60;1.00
3684;DHT22;1858;48.716;9.648;2023-01-28T11:04:44;4.10;1.00
3684;DHT22;1858;48.716;9.648;2023-01-28T11:07:18;4.30;1.00
3684;DHT22;1858;48.716;9.648;2023-01-28T11:09:49;4.20;1.00
3684;DHT22;1858;48.716;9.648;2023-01-28T11:12:37;4.10;1.00
3684;DHT22;1858;48.716;9.648;2023-01-28T11:15:10;4.10;1.00
3684;DHT22;1858;48.716;9.648;2023-01-28T11:17:37;4.10;1.00
3684;DHT22;1858;48.716;9.648;2023-01-28T11:20:18;4.10;1.00
3684;DHT22;1858;48.716;9.648;2023-01-28T11:26:04;4.00;1.00
3684;DHT22;1858;48.716;9.648;2023-01-28T11:28:34;4.20;1.00
3684;DHT22;1858;48.716;9.648;2023-01-28T11:31:04;4.20;1.00
3684;DHT22;1858;48.716;9.648;2023-01-28T11:33:38;4.20;1.00
3684;DHT22;1858;48.716;9.648;2023-01-28T11:36:15;4.30;1.00
3684;DHT22;1858;48.716;9.648;2023-01-28T11:38:59;4.30;1.00
3684;DHT22;1858;48.716;9.648;2023-01-28T11:41:30;4.30;1.00
3684;DHT22;1858;48.716;9.648;2023-01-28T11:44:46;4.10;1.00
3684;DHT22;1858;48.716;9.648;2023-01-28T11:52:34;4.40;1.00
3684;DHT22;1858;48.716;9.648;2023-01-28T11:58:33;4.40;1.00
3684;DHT22;1858;48.716;9.648;2023-01-28T12:00:39;4.30;1.00
3684;DHT22;1858;48.716;9.648;2023-01-28T12:15:25;4.50;1.00
3684;DHT22;1858;48.716;9.648;2023-01-28T12:18:12;4.40;1.00
3684;DHT22;1858;48.716;9.648;2023-01-28T12:26:52;4.50;1.00
3684;DHT22;1858;48.716;9.648;2023-01-28T12:32:23;4.40;1.00
3684;DHT22;1858;48.716;9.648;2023-01-28T12:35:02;4.40;1.00
3684;DHT22;1858;48.716;9.648;2023-01-28T12:46:14;4.50;1.00
3684;DHT22;1858;48.716;9.648;2023-01-28T12:48:44;4.50;1.00
3684;DHT22;1858;48.716;9.648;2023-01-28T12:51:27;4.60;1.00
3684;DHT22;1858;48.716;9.648;2023-01-28T12:56:54;4.60;1.00
3684;DHT22;1858;48.716;9.648;2023-01-28T12:59:37;4.60;1.00
3684;DHT22;1858;48.716;9.648;2023-01-28T13:02:25;4.80;1.00
3684;DHT22;1858;48.716;9.648;2023-01-28T13:07:51;4.80;1.00
3684;DHT22;1858;48.716;9.648;2023-01-28T13:10:33;4.80;1.00
3684;DHT22;1858;48.716;9.648;2023-01-28T13:12:59;4.90;1.00
3684;DHT22;1858;48.716;9.648;2023-01-28T13:21:04;4.90;1.00
3684;DHT22;1858;48.716;9.648;2023-01-28T13:23:41;4.90;1.00
3684;DHT22;1858;48.716;9.648;2023-01-28T13:29:30;4.90;1.00
3684;DHT22;1858;48.716;9.648;2023-01-28T13:32:33;4.80;1.00
3684;DHT22;1858;48.716;9.648;2023-01-28T13:35:06;4.90;1.00
3684;DHT22;1858;48.716;9.648;2023-01-28T13:37:38;5.10;1.00
3684;DHT22;1858;48.716;9.648;2023-01-28T13:42:42;4.80;1.00
3684;DHT22;1858;48.716;9.648;2023-01-28T13:45:30;4.80;1.00
3684;DHT22;1858;48.716;9.648;2023-01-28T13:50:54;4.80;1.00
3684;DHT22;1858;48.716;9.648;2023-01-28T13:53:39;4.90;1.00
3684;DHT22;1858;48.716;9.648;2023-01-28T13:56:09;4.90;1.00
3684;DHT22;1858;48.716;9.648;2023-01-28T14:10:26;4.30;1.00
3684;DHT22;1858;48.716;9.648;2023-01-28T14:15:56;4.10;1.00
3684;DHT22;1858;48.716;9.648;2023-01-28T14:18:34;4.00;1.00
3684;DHT22;1858;48.716;9.648;2023-01-28T14:21:08;3.90;1.00
3684;DHT22;1858;48.716;9.648;2023-01-28T14:23:35;3.80;1.00
3684;DHT22;1858;48.716;9.648;2023-01-28T14:29:08;3.60;1.00
3684;DHT22;1858;48.716;9.648;2023-01-28T14:31:36;3.60;1.00
3684;DHT22;1858;48.716;9.648;2023-01-28T14:34:24;3.60;1.00
3684;DHT22;1858;48.716;9.648;2023-01-28T14:37:08;3.60;1.00
3684;DHT22;1858;48.716;9.648;2023-01-28T14:42:44;3.50;1.00
3684;DHT22;1858;48.716;9.648;2023-01-28T14:53:49;3.40;8.40
3684;DHT22;1858;48.716;9.648;2023-01-28T14:56:44;3.40;10.10
3684;DHT22;1858;48.716;9.648;2023-01-28T14:59:18;3.30;12.90
3684;DHT22;1858;48.716;9.648;2023-01-28T15:02:15;3.20;23.60
3684;DHT22;1858;48.716;9.648;2023-01-28T15:04:39;3.10;28.60
3684;DHT22;1858;48.716;9.648;2023-01-28T15:10:01;3.10;39.70
3684;DHT22;1858;48.716;9.648;2023-01-28T15:12:32;3.10;43.70
3684;DHT22;1858;48.716;9.648;2023-01-28T15:15:09;3.00;53.50
3684;DHT22;1858;48.716;9.648;2023-01-28T15:17:38;3.00;55.40
3684;DHT22;1858;48.716;9.648;2023-01-28T15:20:07;3.00;64.30
3684;DHT22;1858;48.716;9.648;2023-01-28T15:22:36;3.10;74.30
3684;DHT22;1858;48.716;9.648;2023-01-28T15:25:12;3.10;69.10
3684;DHT22;1858;48.716;9.648;2023-01-28T15:27:36;3.10;66.70
3684;DHT22;1858;48.716;9.648;2023-01-28T15:30:16;3.10;62.90
3684;DHT22;1858;48.716;9.648;2023-01-28T15:33:00;3.00;55.90
3684;DHT22;1858;48.716;9.648;2023-01-28T15:35:29;3.00;69.90
3684;DHT22;1858;48.716;9.648;2023-01-28T15:37:57;2.90;80.80
3684;DHT22;1858;48.716;9.648;2023-01-28T15:40:46;3.00;88.70
3684;DHT22;1858;48.716;9.648;2023-01-28T15:43:21;3.00;93.10
3684;DHT22;1858;48.716;9.648;2023-01-28T15:45:52;3.00;70.70
3684;DHT22;1858;48.716;9.648;2023-01-28T15:51:25;3.00;66.80
3684;DHT22;1858;48.716;9.648;2023-01-28T15:53:57;3.00;61.20
3684;DHT22;1858;48.716;9.648;2023-01-28T15:56:27;3.10;68.70
3684;DHT22;1858;48.716;9.648;2023-01-28T15:59:17;3.10;53.70
3684;DHT22;1858;48.716;9.648;2023-01-28T16:01:47;3.10;49.80
3684;DHT22;1858;48.716;9.648;2023-01-28T16:07:10;2.80;50.00
3684;DHT22;1858;48.716;9.648;2023-01-28T16:09:59;2.90;68.80
3684;DHT22;1858;48.716;9.648;2023-01-28T16:12:28;2.90;58.90
3684;DHT22;1858;48.716;9.648;2023-01-28T16:15:01;3.00;58.20
3684;DHT22;1858;48.716;9.648;2023-01-28T16:17:38;3.00;52.80
3684;DHT22;1858;48.716;9.648;2023-01-28T16:20:16;3.00;40.70
3684;DHT22;1858;48.716;9.648;2023-01-28T16:22:40;3.00;44.80
3684;DHT22;1858;48.716;9.648;2023-01-28T16:25:36;3.00;39.50
3684;DHT22;1858;48.716;9.648;2023-01-28T16:28:02;3.00;37.50
3684;DHT22;1858;48.716;9.648;2023-01-28T16:30:31;2.90;37.20
3684;DHT22;1858;48.716;9.648;2023-01-28T16:32:59;2.90;45.40
3684;DHT22;1858;48.716;9.648;2023-01-28T16:35:28;3.00;32.90
3684;DHT22;1858;48.716;9.648;2023-01-28T16:38:17;2.90;35.80
3684;DHT22;1858;48.716;9.648;2023-01-28T16:40:46;2.80;35.30
3684;DHT22;1858;48.716;9.648;2023-01-28T16:46:04;2.90;57.40
3684;DHT22;1858;48.716;9.648;2023-01-28T16:48:52;2.80;46.70
3684;DHT22;1858;48.716;9.648;2023-01-28T16:51:20;2.90;56.30
3684;DHT22;1858;48.716;9.648;2023-01-28T16:56:57;3.00;50.80
3684;DHT22;1858;48.716;9.648;2023-01-28T16:59:25;3.00;42.30
3684;DHT22;1858;48.716;9.648;2023-01-28T17:01:54;3.10;31.60
3684;DHT22;1858;48.716;9.648;2023-01-28T17:04:23;3.10;34.00
3684;DHT22;1858;48.716;9.648;2023-01-28T17:06:51;3.10;25.50
3684;DHT22;1858;48.716;9.648;2023-01-28T17:09:19;3.10;27.70
3684;DHT22;1858;48.716;9.648;2023-01-28T17:11:48;3.10;24.20
3684;DHT22;1858;48.716;9.648;2023-01-28T17:14:36;3.10;24.30
3684;DHT22;1858;48.716;9.648;2023-01-28T17:17:05;3.10;20.40
3684;DHT22;1858;48.716;9.648;2023-01-28T17:19:33;3.00;21.00
3684;DHT22;1858;48.716;9.648;2023-01-28T17:22:21;3.00;26.80
3684;DHT22;1858;48.716;9.648;2023-01-28T17:24:49;2.90;18.80
3684;DHT22;1858;48.716;9.648;2023-01-28T17:27:18;3.00;20.80
3684;DHT22;1858;48.716;9.648;2023-01-28T17:29:46;3.00;18.60
3684;DHT22;1858;48.716;9.648;2023-01-28T17:32:34;2.90;19.40
3684;DHT22;1858;48.716;9.648;2023-01-28T17:35:02;2.90;20.80
3684;DHT22;1858;48.716;9.648;2023-01-28T17:37:53;2.90;23.10
3684;DHT22;1858;48.716;9.648;2023-01-28T17:40:22;3.00;19.40
3684;DHT22;1858;48.716;9.648;2023-01-28T17:42:51;3.00;18.20
3684;DHT22;1858;48.716;9.648;2023-01-28T17:45:19;3.00;18.80
3684;DHT22;1858;48.716;9.648;2023-01-28T17:48:07;3.00;16.60
3684;DHT22;1858;48.716;9.648;2023-01-28T17:50:55;2.90;14.10
3684;DHT22;1858;48.716;9.648;2023-01-28T17:53:24;2.90;17.00
3684;DHT22;1858;48.716;9.648;2023-01-28T17:56:18;2.90;19.00
3684;DHT22;1858;48.716;9.648;2023-01-28T17:59:06;3.00;18.80
3684;DHT22;1858;48.716;9.648;2023-01-28T18:01:35;2.90;12.10
3684;DHT22;1858;48.716;9.648;2023-01-28T18:04:04;2.90;15.10
3684;DHT22;1858;48.716;9.648;2023-01-28T18:06:34;2.80;22.40
3684;DHT22;1858;48.716;9.648;2023-01-28T18:09:22;2.90;28.10
3684;DHT22;1858;48.716;9.648;2023-01-28T18:11:50;3.00;24.20
3684;DHT22;1858;48.716;9.648;2023-01-28T18:14:18;3.00;27.60
3684;DHT22;1858;48.716;9.648;2023-01-28T18:16:47;3.00;19.50
3684;DHT22;1858;48.716;9.648;2023-01-28T18:19:15;3.00;15.30
3684;DHT22;1858;48.716;9.648;2023-01-28T18:21:44;3.00;14.70
3684;DHT22;1858;48.716;9.648;2023-01-28T18:24:12;3.00;15.60
3684;DHT22;1858;48.716;9.648;2023-01-28T18:26:40;3.00;14.80
3684;DHT22;1858;48.716;9.648;2023-01-28T18:29:09;3.00;15.50
3684;DHT22;1858;48.716;9.648;2023-01-28T18:31:39;2.90;16.50
3684;DHT22;1858;48.716;9.648;2023-01-28T18:34:07;3.00;21.20
3684;DHT22;1858;48.716;9.648;2023-01-28T18:36:36;3.00;15.90
3684;DHT22;1858;48.716;9.648;2023-01-28T18:39:04;3.00;16.00
3684;DHT22;1858;48.716;9.648;2023-01-28T18:41:32;3.10;23.30
3684;DHT22;1858;48.716;9.648;2023-01-28T18:44:20;3.20;22.30
3684;DHT22;1858;48.716;9.648;2023-01-28T18:46:50;3.20;17.80
3684;DHT22;1858;48.716;9.648;2023-01-28T18:49:19;3.20;7.80
3684;DHT22;1858;48.716;9.648;2023-01-28T18:51:48;3.10;3.60
3684;DHT22;1858;48.716;9.648;2023-01-28T18:54:16;3.10;1.20
3684;DHT22;1858;48.716;9.648;2023-01-28T18:59:35;3.00;2.50
3684;DHT22;1858;48.716;9.648;2023-01-28T19:02:04;3.10;8.60
3684;DHT22;1858;48.716;9.648;2023-01-28T19:04:32;3.20;10.40
3684;DHT22;1858;48.716;9.648;2023-01-28T19:07:01;3.20;1.00
3684;DHT22;1858;48.716;9.648;2023-01-28T19:09:29;3.10;1.00
3684;DHT22;1858;48.716;9.648;2023-01-28T19:12:17;3.10;2.20
3684;DHT22;1858;48.716;9.648;2023-01-28T19:14:47;3.00;1.00
3684;DHT22;1858;48.716;9.648;2023-01-28T19:17:15;3.00;3.40
3684;DHT22;1858;48.716;9.648;2023-01-28T19:19:43;2.90;11.70
3684;DHT22;1858;48.716;9.648;2023-01-28T19:22:12;2.90;15.20
3684;DHT22;1858;48.716;9.648;2023-01-28T19:24:40;2.90;17.90
3684;DHT22;1858;48.716;9.648;2023-01-28T19:27:09;2.90;24.40
3684;DHT22;1858;48.716;9.648;2023-01-28T19:29:37;2.90;21.30
3684;DHT22;1858;48.716;9.648;2023-01-28T19:32:06;3.00;30.90
3684;DHT22;1858;48.716;9.648;2023-01-28T19:34:34;3.00;19.30
3684;DHT22;1858;48.716;9.648;2023-01-28T19:37:02;2.90;16.60
3684;DHT22;1858;48.716;9.648;2023-01-28T19:39:31;2.80;18.80
3684;DHT22;1858;48.716;9.648;2023-01-28T19:41:59;2.70;25.30
3684;DHT22;1858;48.716;9.648;2023-01-28T19:44:28;2.70;32.60
3684;DHT22;1858;48.716;9.648;2023-01-28T19:46:57;2.60;34.60
3684;DHT22;1858;48.716;9.648;2023-01-28T19:49:28;2.70;40.00
3684;DHT22;1858;48.716;9.648;2023-01-28T19:51:57;2.70;42.40
3684;DHT22;1858;48.716;9.648;2023-01-28T19:54:26;2.80;47.90
3684;DHT22;1858;48.716;9.648;2023-01-28T19:57:13;2.80;43.10
3684;DHT22;1858;48.716;9.648;2023-01-28T20:00:01;2.90;42.10